Time;durP1;ratioP1;P1;durP2;ratioP2;P2;SDS_P1;SDS_P2;PMS_P1;PMS_P2;Temp;Humidity;BMP_temperature;BMP_pressure;BME280_temperature;BME280_humidity;BME280_pressure;Samples;Min_cycle;Max_cycle;Signal;HPM_P1;HPM_P2
2022/05/13 00:01:10;;;;;;;9.38;1.63;;;12.40;86.70;;;;;;5003617;28;20030;-69
2022/05/13 00:03:37;;;;;;;9.82;1.92;;;12.40;86.50;;;;;;5026653;28;20022;-72
2022/05/13 00:06:04;;;;;;;8.52;2.10;;;12.30;86.60;;;;;;5041247;28;20060;-70
2022/05/13 00:08:29;;;;;;;10.88;2.08;;;12.30;87.00;;;;;;5005170;28;20038;-72
2022/05/13 00:10:55;;;;;;;10.77;1.70;;;12.20;87.00;;;;;;5010929;28;20122;-70
2022/05/13 00:13:21;;;;;;;13.65;2.15;;;12.20;87.00;;;;;;5005069;28;20369;-71
2022/05/13 00:15:48;;;;;;;10.82;1.88;;;12.20;87.20;;;;;;4991192;28;20578;-70
2022/05/13 00:18:15;;;;;;;9.20;2.00;;;12.10;87.50;;;;;;5006490;28;20095;-72
2022/05/13 00:20:41;;;;;;;11.48;2.00;;;12.10;87.60;;;;;;5010316;28;20062;-70
2022/05/13 00:23:07;;;;;;;10.27;1.90;;;12.00;87.60;;;;;;5003683;28;20034;-71
2022/05/13 00:25:35;;;;;;;12.35;2.03;;;11.90;87.70;;;;;;5017030;28;20034;-70
2022/05/13 00:28:03;;;;;;;12.90;2.03;;;11.90;87.90;;;;;;5010805;28;20064;-69
2022/05/13 00:30:32;;;;;;;9.95;2.40;;;11.90;88.00;;;;;;5009848;28;20073;-71
2022/05/13 00:33:00;;;;;;;10.48;1.77;;;11.90;88.00;;;;;;5029284;28;20026;-70
2022/05/13 00:35:26;;;;;;;9.13;2.03;;;11.80;87.90;;;;;;5010662;28;20530;-70
2022/05/13 00:37:52;;;;;;;8.45;1.83;;;11.80;87.40;;;;;;5008142;28;20480;-71
2022/05/13 00:40:20;;;;;;;9.60;1.98;;;11.90;87.10;;;;;;5004028;28;20101;-74
2022/05/13 00:42:46;;;;;;;7.22;1.70;;;11.80;87.10;;;;;;5010090;28;20116;-71
2022/05/13 00:45:14;;;;;;;9.32;1.75;;;11.80;86.70;;;;;;5040658;28;20255;-72
2022/05/13 00:47:40;;;;;;;8.90;2.00;;;11.80;86.90;;;;;;5016767;28;20472;-71
2022/05/13 00:50:07;;;;;;;10.60;1.95;;;11.80;87.00;;;;;;5011192;28;20022;-71
2022/05/13 00:52:33;;;;;;;12.93;1.80;;;11.70;87.20;;;;;;5017414;28;20030;-70
2022/05/13 00:55:04;;;;;;;9.27;1.88;;;11.70;87.20;;;;;;5009440;28;20032;-73
2022/05/13 00:57:35;;;;;;;11.43;2.15;;;11.70;87.40;;;;;;5038581;28;20042;-71
2022/05/13 01:00:02;;;;;;;8.85;1.98;;;11.60;87.50;;;;;;5020833;28;20029;-71
2022/05/13 01:02:29;;;;;;;13.43;1.92;;;11.50;87.70;;;;;;5007803;28;20473;-70
2022/05/13 01:04:55;;;;;;;9.68;2.10;;;11.50;88.30;;;;;;4994253;28;20026;-74
2022/05/13 01:07:21;;;;;;;11.70;2.08;;;11.40;88.20;;;;;;4999590;28;20038;-71
2022/05/13 01:09:52;;;;;;;8.40;1.60;;;11.40;88.10;;;;;;5008697;28;20037;-72
2022/05/13 01:12:22;;;;;;;10.30;2.10;;;11.40;88.50;;;;;;5008738;28;20092;-72
2022/05/13 01:14:57;;;;;;;7.15;1.42;;;11.30;88.50;;;;;;5005527;28;20025;-75
2022/05/13 01:20:24;;;;;;;9.43;1.77;;;11.30;87.40;;;;;;5008325;28;20458;-70
2022/05/13 01:22:54;;;;;;;8.60;2.17;;;11.30;86.90;;;;;;5007898;28;20026;-72
2022/05/13 01:25:24;;;;;;;8.75;1.42;;;11.30;87.30;;;;;;5009049;28;20117;-71
2022/05/13 01:27:51;;;;;;;8.65;1.58;;;11.20;87.40;;;;;;5007058;28;20042;-71
2022/05/13 01:30:23;;;;;;;9.07;1.98;;;11.20;87.80;;;;;;5002444;28;20112;-71
2022/05/13 01:32:49;;;;;;;7.30;1.40;;;11.20;87.20;;;;;;5001487;28;20030;-70
2022/05/13 01:35:15;;;;;;;9.18;1.83;;;11.20;87.50;;;;;;5003843;28;20033;-70
2022/05/13 01:37:41;;;;;;;9.57;1.92;;;11.20;87.60;;;;;;4999434;28;20041;-73
2022/05/13 01:40:07;;;;;;;8.73;1.70;;;11.20;87.30;;;;;;5002557;28;20084;-70
2022/05/13 01:42:34;;;;;;;8.70;2.05;;;11.20;86.80;;;;;;5003598;28;20041;-70
2022/05/13 01:44:59;;;;;;;7.97;1.42;;;11.10;86.80;;;;;;5006711;28;20029;-74
2022/05/13 01:47:26;;;;;;;7.38;1.20;;;11.20;86.90;;;;;;5000589;28;20468;-73
2022/05/13 01:49:52;;;;;;;9.02;1.50;;;11.20;87.50;;;;;;5004390;28;20480;-69
2022/05/13 01:52:18;;;;;;;8.57;1.50;;;11.20;87.30;;;;;;5001403;28;20037;-70
2022/05/13 01:54:44;;;;;;;7.90;1.45;;;11.20;87.10;;;;;;5009513;28;20026;-70
2022/05/13 01:57:10;;;;;;;8.88;1.55;;;11.20;86.60;;;;;;5001406;28;20056;-71
2022/05/13 01:59:36;;;;;;;5.45;1.42;;;11.20;87.40;;;;;;5007093;28;20069;-73
2022/05/13 02:02:02;;;;;;;9.73;1.45;;;11.20;87.20;;;;;;5013814;28;20375;-70
2022/05/13 02:04:28;;;;;;;9.18;1.60;;;11.20;86.90;;;;;;5008036;28;20125;-70
2022/05/13 02:06:54;;;;;;;9.40;1.75;;;11.20;87.00;;;;;;5007795;28;20416;-71
2022/05/13 02:09:19;;;;;;;7.00;1.30;;;11.20;87.30;;;;;;5003011;28;20029;-72
2022/05/13 02:11:48;;;;;;;10.25;1.67;;;11.20;87.40;;;;;;4999418;28;20037;-71
2022/05/13 02:14:15;;;;;;;7.68;1.90;;;11.20;87.40;;;;;;5024483;28;20491;-71
2022/05/13 02:16:41;;;;;;;14.70;2.30;;;11.10;87.50;;;;;;5027976;28;20104;-71
2022/05/13 02:19:07;;;;;;;7.95;1.50;;;11.20;86.90;;;;;;5021959;28;20233;-70
2022/05/13 02:21:32;;;;;;;7.47;1.38;;;11.10;87.00;;;;;;5015434;28;20080;-71
2022/05/13 02:23:58;;;;;;;8.05;1.90;;;11.20;85.80;;;;;;5004037;28;20108;-71
2022/05/13 02:26:24;;;;;;;6.78;1.48;;;11.20;85.60;;;;;;5006390;28;20038;-76
2022/05/13 02:28:50;;;;;;;7.75;1.50;;;11.20;85.60;;;;;;5004511;28;20100;-71
2022/05/13 02:31:16;;;;;;;9.55;1.30;;;11.20;85.00;;;;;;5016399;28;20030;-73
2022/05/13 02:33:42;;;;;;;7.07;1.50;;;11.20;84.60;;;;;;5017220;28;20045;-70
2022/05/13 02:36:09;;;;;;;7.13;1.50;;;11.20;84.50;;;;;;5022170;28;20116;-71
2022/05/13 02:38:35;;;;;;;7.70;1.45;;;11.20;84.70;;;;;;5033127;28;20030;-74
2022/05/13 02:41:13;;;;;;;7.78;1.50;;;11.10;84.50;;;;;;5001125;28;20034;-71
2022/05/13 02:43:43;;;;;;;8.07;1.30;;;11.20;84.40;;;;;;5009474;28;20037;-71
2022/05/13 02:46:09;;;;;;;8.07;1.33;;;11.10;84.40;;;;;;5017354;28;20025;-71
2022/05/13 02:48:35;;;;;;;5.93;1.02;;;11.20;83.20;;;;;;5006221;28;20440;-72
2022/05/13 02:51:00;;;;;;;8.95;1.23;;;11.20;83.20;;;;;;4995559;28;20563;-72
2022/05/13 02:53:26;;;;;;;6.78;1.30;;;11.20;83.00;;;;;;5010854;28;20034;-71
2022/05/13 02:55:52;;;;;;;4.07;1.30;;;11.20;83.20;;;;;;5020811;28;20029;-70
2022/05/13 02:58:18;;;;;;;6.93;1.52;;;11.10;83.00;;;;;;5010570;28;20030;-73
2022/05/13 03:00:44;;;;;;;6.15;1.20;;;11.10;82.80;;;;;;5010683;28;20103;-70
2022/05/13 03:03:10;;;;;;;4.05;1.20;;;11.10;82.70;;;;;;5039649;28;20111;-71
2022/05/13 03:05:38;;;;;;;5.53;1.13;;;11.10;82.80;;;;;;5022434;28;20053;-71
2022/05/13 03:08:05;;;;;;;8.50;1.50;;;11.10;83.10;;;;;;4997995;28;20128;-73
2022/05/13 03:10:33;;;;;;;6.15;1.40;;;11.10;82.70;;;;;;5018976;28;20068;-71
2022/05/13 03:12:59;;;;;;;6.45;1.13;;;11.00;82.90;;;;;;5008852;28;20085;-72
2022/05/13 03:15:26;;;;;;;6.72;1.10;;;11.00;82.70;;;;;;5024920;28;20379;-71
2022/05/13 03:17:52;;;;;;;5.38;1.10;;;11.00;82.80;;;;;;5013151;28;20030;-70
2022/05/13 03:20:19;;;;;;;4.45;1.08;;;11.00;83.10;;;;;;5007913;28;20120;-71
2022/05/13 03:22:46;;;;;;;6.18;1.40;;;11.00;82.90;;;;;;4999457;28;20030;-70
2022/05/13 03:25:12;;;;;;;4.55;1.20;;;11.00;83.10;;;;;;5008635;28;20038;-71
2022/05/13 03:27:38;;;;;;;5.28;1.15;;;11.10;83.10;;;;;;5008320;28;20041;-71
2022/05/13 03:30:06;;;;;;;4.25;1.35;;;11.10;82.90;;;;;;5026788;28;20384;-72
2022/05/13 03:32:31;;;;;;;5.45;1.25;;;11.10;83.10;;;;;;5010027;28;20038;-70
2022/05/13 03:34:57;;;;;;;5.82;1.52;;;11.10;83.50;;;;;;5018067;28;20283;-71
2022/05/13 03:37:23;;;;;;;8.23;1.27;;;11.20;83.00;;;;;;5017530;28;20423;-72
2022/05/13 03:39:48;;;;;;;4.80;1.20;;;11.20;83.40;;;;;;5032352;28;20037;-71
2022/05/13 03:42:15;;;;;;;7.40;1.20;;;11.20;83.30;;;;;;5006884;28;20114;-71
2022/05/13 03:44:42;;;;;;;4.40;0.98;;;11.20;83.40;;;;;;5010152;28;20049;-71
2022/05/13 03:47:07;;;;;;;6.15;1.40;;;11.10;83.70;;;;;;5007856;28;20026;-70
2022/05/13 03:49:33;;;;;;;7.25;1.15;;;11.20;83.90;;;;;;5009891;28;20369;-69
2022/05/13 03:51:59;;;;;;;6.03;1.50;;;11.20;83.80;;;;;;5008566;28;20067;-69
2022/05/13 03:54:25;;;;;;;7.13;1.45;;;11.20;83.90;;;;;;5018467;28;20057;-73
2022/05/13 03:56:51;;;;;;;5.65;1.30;;;11.20;83.70;;;;;;5000569;28;20032;-71
2022/05/13 03:59:16;;;;;;;6.88;1.25;;;11.20;83.80;;;;;;5009371;28;20384;-71
2022/05/13 04:01:42;;;;;;;6.50;1.33;;;11.20;83.30;;;;;;5006269;28;20026;-70
2022/05/13 04:04:08;;;;;;;8.40;1.38;;;11.20;83.40;;;;;;5012583;28;20037;-71
2022/05/13 04:09:17;;;;;;;6.72;1.40;;;11.20;83.30;;;;;;5009405;28;20052;-72
2022/05/13 04:16:04;;;;;;;4.93;1.27;;;11.20;83.40;;;;;;5008481;28;20380;-69
2022/05/13 04:17:13;;;;;;;6.82;1.40;;;11.20;83.20;;;;;;5017956;28;20076;-72
2022/05/13 04:19:39;;;;;;;4.72;1.30;;;11.20;83.50;;;;;;5007145;28;20485;-71
2022/05/13 04:22:04;;;;;;;5.90;1.58;;;11.20;83.40;;;;;;5007751;28;20049;-69
2022/05/13 04:24:30;;;;;;;6.45;1.30;;;11.20;83.70;;;;;;5009775;28;20028;-69
2022/05/13 04:26:56;;;;;;;5.70;1.63;;;11.10;83.80;;;;;;5008783;28;20349;-70
2022/05/13 04:29:21;;;;;;;7.70;1.38;;;11.20;83.90;;;;;;5009118;28;20030;-69
2022/05/13 04:31:47;;;;;;;6.50;1.40;;;11.20;84.00;;;;;;5010922;28;20036;-71
2022/05/13 04:34:14;;;;;;;5.20;1.27;;;11.10;84.10;;;;;;5023685;28;20125;-70
2022/05/13 04:36:40;;;;;;;5.07;1.20;;;11.10;84.00;;;;;;5024049;28;20026;-70
2022/05/13 04:39:06;;;;;;;6.78;1.40;;;11.10;84.10;;;;;;5007657;28;20034;-68
2022/05/13 04:44:17;;;;;;;6.75;1.63;;;11.10;84.20;;;;;;5019854;28;20738;-69
2022/05/13 04:46:42;;;;;;;8.63;1.60;;;11.20;84.20;;;;;;5019389;28;20392;-72
2022/05/13 04:49:08;;;;;;;6.45;1.70;;;11.20;84.20;;;;;;5017368;28;20029;-70
2022/05/13 04:51:35;;;;;;;9.43;2.20;;;11.20;84.30;;;;;;5005828;28;20025;-70
2022/05/13 04:54:01;;;;;;;10.68;1.73;;;11.20;84.20;;;;;;5002436;28;20496;-71
2022/05/13 04:56:29;;;;;;;7.30;1.45;;;11.20;83.90;;;;;;5005004;28;20030;-71
2022/05/13 04:58:55;;;;;;;5.95;1.40;;;11.30;83.90;;;;;;5004409;28;20476;-72
2022/05/13 05:01:22;;;;;;;6.03;1.55;;;11.30;83.70;;;;;;5009320;28;20119;-68
2022/05/13 05:03:48;;;;;;;5.10;1.55;;;11.30;83.70;;;;;;5011570;28;20026;-68
2022/05/13 05:06:15;;;;;;;8.07;1.30;;;11.30;83.60;;;;;;5002834;28;20361;-69
2022/05/13 05:08:41;;;;;;;6.93;1.60;;;11.30;83.20;;;;;;5005381;28;20022;-69
2022/05/13 05:11:08;;;;;;;7.63;1.70;;;11.40;83.10;;;;;;5003145;28;20368;-70
2022/05/13 05:13:40;;;;;;;5.05;1.33;;;11.40;83.20;;;;;;5001892;28;20118;-73
2022/05/13 05:16:06;;;;;;;9.50;1.70;;;11.40;83.10;;;;;;5008216;28;20125;-70
2022/05/13 05:18:33;;;;;;;5.45;1.50;;;11.50;83.30;;;;;;5023834;28;20038;-69
2022/05/13 05:20:58;;;;;;;6.18;1.73;;;11.50;82.70;;;;;;5029508;28;20132;-71
2022/05/13 05:23:27;;;;;;;6.28;1.35;;;11.50;83.00;;;;;;5015078;28;20118;-69
2022/05/13 05:25:54;;;;;;;8.00;1.70;;;11.60;82.80;;;;;;5005672;28;20042;-71
2022/05/13 05:28:19;;;;;;;8.68;1.73;;;11.60;82.20;;;;;;5007974;28;20120;-69
2022/05/13 05:30:45;;;;;;;8.93;1.58;;;11.70;82.20;;;;;;5012258;28;20101;-69
2022/05/13 05:33:12;;;;;;;6.88;1.75;;;11.80;82.10;;;;;;5010061;28;20656;-69
2022/05/13 05:35:38;;;;;;;7.85;1.65;;;11.80;83.00;;;;;;5006533;28;20770;-70
2022/05/13 05:38:04;;;;;;;8.77;1.90;;;11.80;82.00;;;;;;5004932;28;20038;-73
2022/05/13 05:40:30;;;;;;;5.07;1.30;;;11.90;81.90;;;;;;5001855;28;20400;-70
2022/05/13 05:42:56;;;;;;;5.32;1.60;;;11.90;82.00;;;;;;5015958;28;20071;-70
2022/05/13 05:45:22;;;;;;;7.22;1.60;;;11.90;82.40;;;;;;5004724;28;20029;-68
2022/05/13 05:47:49;;;;;;;12.02;1.70;;;12.00;82.10;;;;;;5005386;28;20029;-71
2022/05/13 05:50:18;;;;;;;6.88;1.50;;;12.00;81.90;;;;;;5004571;28;20040;-69
2022/05/13 05:52:44;;;;;;;7.35;1.45;;;12.10;81.40;;;;;;5025939;28;20113;-72
2022/05/13 05:58:00;;;;;;;5.45;1.40;;;12.20;80.80;;;;;;5005002;28;20500;-72
2022/05/13 06:00:26;;;;;;;;;;;12.20;81.40;;;;;;5009148;28;20030;-73
2022/05/13 06:02:52;;;;;;;6.95;1.65;;;12.30;80.60;;;;;;5002867;28;19920;-71
2022/05/13 06:05:18;;;;;;;6.45;1.75;;;12.40;80.80;;;;;;5005894;28;20041;-73
2022/05/13 06:07:45;;;;;;;10.85;1.85;;;12.40;80.50;;;;;;5015581;28;20045;-71
2022/05/13 06:10:12;;;;;;;6.03;1.67;;;12.50;80.10;;;;;;5013483;28;20033;-71
2022/05/13 06:12:37;;;;;;;8.73;1.60;;;12.50;80.60;;;;;;5001122;28;20029;-71
2022/05/13 06:15:03;;;;;;;14.95;2.08;;;12.60;80.60;;;;;;5008241;28;20030;-71
2022/05/13 06:17:29;;;;;;;9.23;1.73;;;12.60;80.30;;;;;;5004396;28;20399;-71
2022/05/13 06:19:54;;;;;;;6.97;2.03;;;12.70;80.40;;;;;;5000565;28;20066;-71
2022/05/13 06:22:21;;;;;;;8.95;1.92;;;12.70;80.30;;;;;;5006004;28;20033;-71
2022/05/13 06:24:47;;;;;;;6.68;1.80;;;12.80;79.60;;;;;;5009472;28;20543;-71
2022/05/13 06:27:13;;;;;;;8.35;1.50;;;12.80;79.40;;;;;;5011529;28;20034;-73
2022/05/13 06:29:38;;;;;;;7.90;1.60;;;12.90;79.80;;;;;;5001619;28;20030;-71
2022/05/13 06:32:04;;;;;;;8.52;1.50;;;12.90;79.30;;;;;;5009171;28;20033;-71
2022/05/13 06:34:30;;;;;;;6.47;1.98;;;13.00;79.00;;;;;;5008037;28;20033;-72
2022/05/13 06:36:56;;;;;;;7.72;2.13;;;13.10;79.10;;;;;;5013429;28;20029;-71
2022/05/13 06:39:21;;;;;;;12.00;2.08;;;13.20;78.50;;;;;;5014744;28;20129;-70
2022/05/13 06:41:47;;;;;;;9.30;2.15;;;13.30;78.20;;;;;;4999160;28;20101;-71
2022/05/13 06:44:15;;;;;;;9.73;1.70;;;13.50;78.40;;;;;;5007984;28;20476;-73
2022/05/13 06:46:41;;;;;;;10.60;2.15;;;13.60;77.00;;;;;;5003741;28;20821;-70
2022/05/13 06:49:08;;;;;;;8.45;1.88;;;13.70;75.80;;;;;;5019279;28;20037;-71
2022/05/13 06:51:34;;;;;;;7.07;1.75;;;13.70;75.50;;;;;;5022963;28;20072;-70
2022/05/13 06:54:03;;;;;;;11.38;2.20;;;13.80;75.90;;;;;;5005022;28;20124;-70
2022/05/13 06:56:34;;;;;;;9.98;1.83;;;13.90;74.70;;;;;;5002235;28;20030;-70
2022/05/13 06:59:00;;;;;;;9.10;1.85;;;13.90;75.30;;;;;;5007385;28;20069;-71
2022/05/13 07:01:26;;;;;;;10.20;1.95;;;14.10;74.40;;;;;;5019492;28;20543;-70
2022/05/13 07:03:52;;;;;;;11.25;2.38;;;14.40;73.90;;;;;;5011555;28;20416;-70
2022/05/13 07:06:18;;;;;;;9.00;1.98;;;14.70;72.10;;;;;;5010917;28;20471;-71
2022/05/13 07:08:43;;;;;;;7.13;1.80;;;15.00;71.40;;;;;;5024989;28;20041;-70
2022/05/13 07:11:09;;;;;;;9.98;1.92;;;15.20;69.60;;;;;;5002327;28;20021;-71
2022/05/13 07:13:35;;;;;;;10.82;1.92;;;15.20;69.70;;;;;;5008259;28;20022;-73
2022/05/13 07:16:01;;;;;;;7.40;1.80;;;15.20;69.60;;;;;;4997023;28;20022;-70
2022/05/13 07:18:27;;;;;;;11.50;2.10;;;15.20;70.20;;;;;;5007396;28;20029;-70
2022/05/13 07:20:53;;;;;;;7.85;2.17;;;15.20;69.60;;;;;;4998122;28;20043;-70
2022/05/13 07:23:19;;;;;;;10.20;2.20;;;15.10;70.40;;;;;;5005522;28;20030;-71
2022/05/13 07:25:45;;;;;;;8.65;2.20;;;15.10;70.30;;;;;;5003055;28;20523;-71
2022/05/13 07:28:11;;;;;;;10.20;2.10;;;15.10;70.00;;;;;;5011276;28;20034;-72
2022/05/13 07:30:37;;;;;;;6.40;1.55;;;15.20;69.90;;;;;;5002648;28;20496;-71
2022/05/13 07:33:04;;;;;;;7.25;2.00;;;15.30;70.80;;;;;;4991819;28;20499;-71
2022/05/13 07:35:29;;;;;;;9.95;2.30;;;15.30;70.00;;;;;;4994906;28;20036;-70
2022/05/13 07:37:55;;;;;;;9.95;2.15;;;15.30;70.60;;;;;;5011068;28;20030;-71
2022/05/13 07:43:05;;;;;;;11.60;2.53;;;15.30;69.40;;;;;;5009277;28;20120;-72
2022/05/13 07:45:31;;;;;;;10.93;2.30;;;15.30;69.40;;;;;;4994011;28;20034;-73
2022/05/13 07:47:57;;;;;;;8.10;2.20;;;15.40;69.40;;;;;;5016878;28;20037;-70
2022/05/13 07:50:23;;;;;;;8.35;2.00;;;15.40;70.00;;;;;;5011054;28;20030;-70
2022/05/13 07:52:51;;;;;;;7.15;2.03;;;15.40;69.10;;;;;;5011070;28;20065;-72
2022/05/13 07:55:16;;;;;;;9.73;2.30;;;15.40;69.60;;;;;;5025337;28;20040;-69
2022/05/13 07:57:43;;;;;;;10.93;2.35;;;15.30;69.70;;;;;;5004582;28;20038;-71
2022/05/13 08:00:29;;;;;;;7.22;2.00;;;15.40;69.70;;;;;;5030731;28;20556;-70
2022/05/13 08:02:57;;;;;;;9.45;2.00;;;15.40;69.40;;;;;;5000781;28;20476;-72
2022/05/13 08:05:25;;;;;;;9.27;1.92;;;15.50;68.90;;;;;;5005825;28;20056;-71
2022/05/13 08:08:11;;;;;;;11.70;2.28;;;15.50;68.20;;;;;;5006601;28;20733;-71
2022/05/13 08:10:38;;;;;;;10.00;2.22;;;15.50;69.30;;;;;;5012975;28;20069;-71
2022/05/13 08:13:04;;;;;;;11.73;2.55;;;15.40;67.20;;;;;;5010148;28;20041;-70
2022/05/13 08:15:30;;;;;;;11.27;2.45;;;15.40;67.60;;;;;;5010831;28;20483;-72
2022/05/13 08:17:56;;;;;;;8.93;2.30;;;15.50;67.10;;;;;;5008807;28;20472;-68
2022/05/13 08:20:22;;;;;;;8.77;2.03;;;15.50;66.80;;;;;;5010475;28;20141;-72
2022/05/13 08:22:48;;;;;;;8.43;2.08;;;15.60;66.20;;;;;;5019922;28;20038;-72
2022/05/13 08:25:13;;;;;;;10.15;2.42;;;15.70;65.80;;;;;;4993895;28;20496;-75
2022/05/13 08:27:39;;;;;;;9.68;1.98;;;15.70;66.30;;;;;;5002161;28;20538;-71
2022/05/13 08:30:06;;;;;;;11.35;2.05;;;15.90;65.80;;;;;;5009701;28;20543;-71
2022/05/13 08:32:32;;;;;;;10.73;2.25;;;16.10;64.80;;;;;;5025359;28;20033;-71
2022/05/13 08:34:58;;;;;;;10.75;2.58;;;16.40;65.30;;;;;;5009035;28;20037;-71
2022/05/13 08:37:23;;;;;;;10.00;2.10;;;16.60;64.40;;;;;;5008505;28;20033;-69
2022/05/13 08:39:49;;;;;;;7.90;2.28;;;16.60;64.10;;;;;;4998224;28;20031;-68
2022/05/13 08:42:22;;;;;;;8.93;1.75;;;16.70;65.60;;;;;;5002811;28;20029;-71
2022/05/13 08:44:49;;;;;;;11.02;1.90;;;16.70;63.70;;;;;;5011052;28;20025;-71
2022/05/13 08:47:55;;;;;;;7.53;2.10;;;16.60;62.70;;;;;;5011706;28;20033;-71
2022/05/13 08:50:42;;;;;;;10.23;2.65;;;16.40;63.50;;;;;;4990456;28;20036;-71
2022/05/13 08:53:31;;;;;;;9.55;2.10;;;16.10;63.60;;;;;;5007970;28;20094;-68
2022/05/13 08:56:10;;;;;;;11.33;2.50;;;15.80;65.00;;;;;;5001199;28;20093;-69
2022/05/13 08:58:49;;;;;;;8.43;2.17;;;15.60;66.10;;;;;;5006128;28;20030;-72
2022/05/13 09:01:23;;;;;;;10.38;2.20;;;15.50;67.90;;;;;;5005621;28;20036;-71
2022/05/13 09:04:11;;;;;;;10.18;2.30;;;15.40;70.00;;;;;;5009406;28;20025;-70
2022/05/13 09:06:54;;;;;;;12.85;2.15;;;15.50;71.30;;;;;;5007410;28;20396;-72
2022/05/13 09:09:20;;;;;;;9.40;2.50;;;15.50;70.70;;;;;;5009331;28;20048;-72
2022/05/13 09:11:48;;;;;;;8.55;2.10;;;15.40;71.30;;;;;;5007900;28;20034;-70
2022/05/13 09:14:31;;;;;;;15.73;2.88;;;15.30;72.10;;;;;;4990073;28;20034;-69
2022/05/13 09:17:14;;;;;;;15.23;2.65;;;15.20;73.10;;;;;;4989573;28;20037;-69
2022/05/13 09:20:00;;;;;;;11.90;2.42;;;15.20;73.50;;;;;;4999872;28;20953;-68
2022/05/13 09:22:34;;;;;;;6.80;2.10;;;15.40;73.00;;;;;;5009657;28;20077;-69
2022/05/13 09:25:00;;;;;;;8.18;2.00;;;15.50;71.30;;;;;;5008482;28;20539;-70
2022/05/13 09:27:25;;;;;;;13.02;2.85;;;15.50;71.10;;;;;;5009373;28;20033;-68
2022/05/13 09:29:51;;;;;;;14.63;2.95;;;15.40;72.00;;;;;;5008381;28;20139;-71
2022/05/13 09:32:30;;;;;;;13.93;2.50;;;15.30;71.60;;;;;;5009104;28;20041;-71
2022/05/13 09:35:00;;;;;;;13.52;2.85;;;15.20;72.00;;;;;;5009073;28;20030;-71
2022/05/13 09:37:34;;;;;;;13.88;2.95;;;15.10;73.10;;;;;;5008897;28;20464;-70
2022/05/13 09:40:09;;;;;;;11.48;2.45;;;15.00;72.60;;;;;;5008860;28;20034;-73
2022/05/13 09:42:46;;;;;;;13.38;2.60;;;15.00;72.80;;;;;;5004440;28;20026;-69
2022/05/13 09:45:23;;;;;;;10.50;2.75;;;15.10;73.50;;;;;;5012637;28;20026;-73
2022/05/13 09:48:11;;;;;;;10.27;2.90;;;15.20;74.30;;;;;;5006835;28;20037;-72
2022/05/13 09:50:48;;;;;;;14.70;2.70;;;15.40;75.10;;;;;;4993741;28;20404;-71
2022/05/13 09:53:20;;;;;;;11.57;2.60;;;15.50;73.60;;;;;;4989040;28;20038;-70
2022/05/13 09:55:46;;;;;;;12.23;2.50;;;15.50;72.50;;;;;;5014868;28;20033;-72
2022/05/13 09:58:48;;;;;;;14.05;2.88;;;15.60;72.60;;;;;;5008843;28;20124;-71
2022/05/13 10:01:21;;;;;;;12.60;2.60;;;15.90;72.70;;;;;;5007106;28;20030;-73
2022/05/13 10:04:08;;;;;;;14.30;2.78;;;16.00;71.60;;;;;;5008019;28;20029;-73
2022/05/13 10:06:35;;;;;;;9.98;2.03;;;16.10;71.30;;;;;;5008988;28;20049;-73
2022/05/13 10:15:13;;;;;;;12.52;2.38;;;16.10;69.20;;;;;;5008472;28;20033;-71
2022/05/13 10:17:51;;;;;;;14.43;2.83;;;16.10;68.80;;;;;;5023730;28;20417;-73
2022/05/13 10:20:40;;;;;;;10.02;2.20;;;16.40;68.60;;;;;;5004687;28;20042;-72
2022/05/13 10:23:25;;;;;;;11.13;2.33;;;16.70;70.40;;;;;;5001306;28;20484;-74
2022/05/13 10:25:57;;;;;;;11.65;2.55;;;17.10;65.30;;;;;;5008547;28;20172;-70
2022/05/13 10:28:39;;;;;;;10.10;1.90;;;17.10;65.00;;;;;;5005709;28;20131;-73
2022/05/13 10:31:18;;;;;;;10.25;2.30;;;16.90;65.00;;;;;;4994933;28;20033;-73
2022/05/13 10:34:24;;;;;;;11.13;1.92;;;16.80;64.90;;;;;;4996022;28;20033;-72
2022/05/13 10:37:14;;;;;;;9.30;2.03;;;16.70;66.20;;;;;;4994206;28;20032;-73
2022/05/13 10:39:44;;;;;;;13.15;2.65;;;16.80;68.30;;;;;;4993052;28;20053;-72
2022/05/13 10:42:17;;;;;;;13.13;2.22;;;16.80;68.90;;;;;;4991502;28;20058;-75
2022/05/13 10:45:05;;;;;;;9.75;2.08;;;16.80;65.70;;;;;;4996812;28;20510;-73
2022/05/13 10:47:37;;;;;;;10.55;2.00;;;16.70;65.00;;;;;;5022806;28;20472;-71
2022/05/13 10:50:04;;;;;;;7.07;1.90;;;16.60;66.30;;;;;;4993034;28;20121;-72
2022/05/13 10:52:58;;;;;;;9.65;2.25;;;16.70;65.90;;;;;;5007017;28;20022;-70
2022/05/13 10:55:32;;;;;;;12.35;2.45;;;16.80;68.20;;;;;;4992155;28;20033;-70
2022/05/13 10:58:16;;;;;;;11.73;2.40;;;16.90;68.90;;;;;;5008210;28;20040;-72
2022/05/13 11:00:53;;;;;;;20.90;2.63;;;17.00;68.10;;;;;;5012339;28;20388;-77
2022/05/13 11:03:52;;;;;;;10.35;2.20;;;17.10;67.40;;;;;;5027444;28;20028;-73
2022/05/13 11:06:52;;;;;;;10.90;2.28;;;17.20;66.20;;;;;;5001578;28;20485;-75
2022/05/13 11:09:46;;;;;;;14.77;2.88;;;17.50;65.90;;;;;;5027292;28;20096;-76
2022/05/13 11:12:41;;;;;;;11.38;2.20;;;17.80;64.00;;;;;;4999224;28;20054;-75
2022/05/13 11:15:38;;;;;;;12.48;2.88;;;18.10;65.60;;;;;;4992486;28;20058;-69
2022/05/13 11:18:32;;;;;;;15.02;3.42;;;18.00;64.20;;;;;;5006154;28;20038;-72
2022/05/13 11:21:21;;;;;;;11.35;2.33;;;17.80;66.30;;;;;;5010995;28;20526;-72
2022/05/13 11:26:59;;;;;;;11.38;2.50;;;17.60;65.20;;;;;;5007762;28;20306;-74
2022/05/13 11:29:48;;;;;;;13.48;2.47;;;18.30;63.20;;;;;;5010693;28;20040;-73
2022/05/13 11:32:29;;;;;;;13.07;2.67;;;18.70;62.50;;;;;;5008170;28;20018;-71
2022/05/13 11:35:35;;;;;;;11.68;2.88;;;18.70;61.40;;;;;;5010851;28;20048;-72
2022/05/13 11:38:11;;;;;;;10.38;2.45;;;18.90;61.30;;;;;;5009053;28;20045;-76
2022/05/13 11:40:49;;;;;;;12.07;2.80;;;18.70;60.00;;;;;;4997735;28;20030;-74
2022/05/13 11:43:57;;;;;;;10.95;2.40;;;18.40;61.50;;;;;;5000800;28;20049;-71
2022/05/13 11:46:26;;;;;;;12.32;2.40;;;18.20;61.80;;;;;;5003840;28;20035;-73
2022/05/13 11:49:28;;;;;;;9.70;2.07;;;18.10;61.40;;;;;;5000306;28;20038;-71
2022/05/13 11:51:56;;;;;;;13.23;2.30;;;18.20;61.20;;;;;;5008814;28;20032;-70
2022/05/13 11:54:26;;;;;;;8.85;2.42;;;18.20;61.00;;;;;;5003064;28;20500;-76
2022/05/13 11:57:18;;;;;;;10.52;2.40;;;18.30;61.80;;;;;;5010059;28;20021;-71
2022/05/13 12:00:15;;;;;;;11.60;2.13;;;18.40;61.90;;;;;;5003386;28;20029;-69
2022/05/13 12:03:03;;;;;;;9.32;2.67;;;18.40;60.10;;;;;;5004572;28;20037;-74
2022/05/13 12:05:32;;;;;;;9.45;3.03;;;18.10;60.30;;;;;;5041537;28;20537;-71
2022/05/13 12:08:07;;;;;;;14.27;2.37;;;17.80;61.10;;;;;;5009068;28;20028;-71
2022/05/13 12:11:00;;;;;;;10.40;2.55;;;17.70;62.20;;;;;;5007463;28;20711;-72
2022/05/13 12:13:37;;;;;;;13.65;2.45;;;17.80;63.20;;;;;;5008655;28;20054;-73
2022/05/13 12:16:32;;;;;;;9.15;2.65;;;18.20;62.30;;;;;;5020511;28;20085;-73
2022/05/13 12:19:31;;;;;;;13.13;2.60;;;18.60;60.40;;;;;;4999677;28;20093;-71
2022/05/13 12:22:19;;;;;;;15.73;2.92;;;18.50;59.80;;;;;;5010706;28;20042;-76
2022/05/13 12:24:59;;;;;;;13.93;2.97;;;18.60;60.10;;;;;;5006573;28;20026;-76
2022/05/13 12:27:45;;;;;;;13.23;2.70;;;18.30;62.50;;;;;;5004904;28;20038;-72
2022/05/13 12:30:31;;;;;;;12.43;2.78;;;18.20;60.70;;;;;;5019603;28;20041;-70
2022/05/13 12:33:19;;;;;;;12.98;2.40;;;18.30;61.60;;;;;;5007941;28;20048;-72
2022/05/13 12:39:21;;;;;;;12.48;2.78;;;18.00;62.20;;;;;;5006061;28;20084;-70
2022/05/13 12:42:09;;;;;;;10.38;2.90;;;17.90;62.70;;;;;;5007089;28;20100;-73
2022/05/13 12:44:42;;;;;;;11.70;2.50;;;18.00;62.40;;;;;;5000666;28;20125;-73
2022/05/13 12:47:17;;;;;;;11.52;2.55;;;18.00;62.10;;;;;;5020984;28;20675;-72
2022/05/13 12:49:49;;;;;;;13.13;2.67;;;17.90;63.30;;;;;;5007479;28;20053;-74
2022/05/13 12:52:26;;;;;;;8.95;2.30;;;17.80;60.40;;;;;;5007499;28;20101;-79
2022/05/13 12:55:01;;;;;;;12.88;2.42;;;17.80;61.80;;;;;;5004346;28;20383;-74
2022/05/13 12:58:00;;;;;;;11.48;3.15;;;17.90;61.90;;;;;;5003114;28;20033;-70
2022/05/13 13:00:42;;;;;;;11.82;2.13;;;18.20;61.00;;;;;;5004971;28;20041;-75
2022/05/13 13:03:10;;;;;;;13.13;2.50;;;18.40;60.80;;;;;;5004651;28;20057;-72
2022/05/13 13:05:40;;;;;;;10.00;2.28;;;18.60;59.70;;;;;;5030663;28;20034;-73
2022/05/13 13:08:12;;;;;;;12.88;2.33;;;18.70;59.90;;;;;;5004297;28;20037;-72
2022/05/13 13:11:00;;;;;;;12.20;2.28;;;18.90;58.90;;;;;;5005904;28;20045;-73
2022/05/13 13:13:36;;;;;;;12.40;2.58;;;18.90;58.90;;;;;;5010003;28;20030;-71
2022/05/13 13:16:08;;;;;;;14.05;2.65;;;19.10;59.40;;;;;;5007063;28;20022;-70
2022/05/13 13:18:37;;;;;;;10.13;2.10;;;19.00;60.70;;;;;;5003184;28;20089;-73
2022/05/13 13:21:10;;;;;;;13.13;2.22;;;18.80;59.10;;;;;;5004583;28;20077;-72
2022/05/13 13:23:40;;;;;;;12.38;2.65;;;18.40;59.90;;;;;;4989952;28;20038;-73
2022/05/13 13:26:08;;;;;;;13.25;2.45;;;18.10;61.00;;;;;;5031888;28;20496;-71
2022/05/13 13:28:36;;;;;;;18.90;2.90;;;18.00;62.30;;;;;;5008147;28;20628;-71
2022/05/13 13:31:05;;;;;;;12.45;2.63;;;18.00;63.30;;;;;;5020201;28;20125;-73
2022/05/13 13:33:33;;;;;;;14.65;2.83;;;17.80;64.70;;;;;;4989650;28;20073;-73